Time;durP1;ratioP1;P1;durP2;ratioP2;P2;SDS_P1;SDS_P2;PMS_P1;PMS_P2;Temp;Humidity;BMP_temperature;BMP_pressure;BME280_temperature;BME280_humidity;BME280_pressure;Samples;Min_cycle;Max_cycle;Signal;HPM_P1;HPM_P2
2022/05/05 00:01:21;;;;;;;4.10;0.90;;;16.70;99.90;;;;;;5072546;28;20036;-78
2022/05/05 00:03:49;;;;;;;2.83;1.15;;;16.80;99.90;;;;;;5072998;28;20042;-79
2022/05/05 00:06:16;;;;;;;1.10;0.90;;;16.80;99.90;;;;;;5073056;28;20020;-78
2022/05/05 00:08:43;;;;;;;1.67;0.95;;;16.90;99.90;;;;;;5071760;28;20024;-79
2022/05/05 00:16:42;;;;;;;3.20;0.98;;;17.20;99.90;;;;;;5079185;28;20082;-77
2022/05/05 00:19:09;;;;;;;1.02;0.73;;;17.20;99.90;;;;;;5072972;28;20366;-76
2022/05/05 00:21:38;;;;;;;1.42;0.82;;;17.30;99.90;;;;;;5067772;28;20025;-76
2022/05/05 00:24:07;;;;;;;1.13;0.90;;;17.40;99.90;;;;;;5072408;28;20023;-74
2022/05/05 00:26:35;;;;;;;1.73;0.70;;;17.50;99.90;;;;;;5072949;28;20021;-78
2022/05/05 00:29:03;;;;;;;1.85;1.00;;;17.50;99.90;;;;;;5073034;28;20028;-78
2022/05/05 00:31:30;;;;;;;6.95;1.38;;;17.50;99.90;;;;;;5071318;28;20499;-78
2022/05/05 00:33:58;;;;;;;2.22;0.88;;;17.60;99.90;;;;;;5071931;28;20111;-78
2022/05/05 00:36:25;;;;;;;1.02;0.80;;;17.60;99.90;;;;;;5071306;28;20109;-77
2022/05/05 00:38:52;;;;;;;1.50;0.90;;;17.60;99.90;;;;;;5071117;28;20531;-78
2022/05/05 00:41:20;;;;;;;3.80;0.80;;;17.70;99.90;;;;;;5070408;28;20028;-72
2022/05/05 00:43:48;;;;;;;1.15;0.73;;;17.70;99.90;;;;;;5072317;28;20117;-73
2022/05/05 00:46:15;;;;;;;1.92;0.60;;;17.80;99.90;;;;;;5072476;28;20055;-78
2022/05/05 00:48:43;;;;;;;1.88;0.60;;;17.80;99.90;;;;;;5071646;28;20032;-78
2022/05/05 00:51:11;;;;;;;1.33;0.60;;;17.80;99.90;;;;;;5069432;28;20024;-78
2022/05/05 00:53:39;;;;;;;1.10;0.40;;;18.00;99.90;;;;;;5072831;28;20070;-78
2022/05/05 00:56:11;;;;;;;0.60;0.50;;;18.00;99.90;;;;;;5072574;28;20100;-72
2022/05/05 00:58:40;;;;;;;2.30;0.60;;;18.10;99.90;;;;;;5072347;28;20500;-78
2022/05/05 01:01:07;;;;;;;2.70;0.98;;;18.10;99.90;;;;;;5072131;28;20451;-77
2022/05/05 01:03:37;;;;;;;1.33;0.60;;;18.20;99.90;;;;;;5072421;28;20016;-78
2022/05/05 01:06:08;;;;;;;1.17;0.50;;;18.30;99.90;;;;;;5072347;28;20404;-77
2022/05/05 01:08:36;;;;;;;1.60;0.68;;;18.40;99.90;;;;;;5072410;28;20052;-79
2022/05/05 01:11:04;;;;;;;1.20;0.63;;;18.40;99.90;;;;;;5072725;28;20017;-78
2022/05/05 01:13:32;;;;;;;0.85;0.65;;;18.40;99.90;;;;;;5070791;28;20025;-77
2022/05/05 01:15:59;;;;;;;1.55;0.77;;;18.50;99.90;;;;;;5071308;28;20377;-76
2022/05/05 01:18:27;;;;;;;1.17;0.80;;;18.40;99.90;;;;;;5072264;28;20405;-77
2022/05/05 01:20:54;;;;;;;1.75;0.82;;;18.50;99.90;;;;;;5072677;28;20033;-77
2022/05/05 01:23:22;;;;;;;3.45;0.90;;;18.60;99.90;;;;;;5069963;28;20017;-78
2022/05/05 01:28:43;;;;;;;1.75;0.80;;;18.60;99.90;;;;;;5071155;28;20079;-78
2022/05/05 01:31:10;;;;;;;4.03;1.05;;;18.60;99.90;;;;;;5072307;28;20016;-78
2022/05/05 01:33:37;;;;;;;2.03;0.95;;;18.70;99.90;;;;;;5070538;28;20417;-77
2022/05/05 01:36:05;;;;;;;4.55;1.17;;;18.70;99.90;;;;;;5070744;28;20033;-73
2022/05/05 01:38:36;;;;;;;1.38;0.73;;;18.90;99.90;;;;;;5070089;28;20129;-74
2022/05/05 01:41:08;;;;;;;3.25;1.02;;;18.90;99.90;;;;;;5071030;28;20457;-76
2022/05/05 01:43:36;;;;;;;2.55;1.15;;;19.00;99.90;;;;;;5070050;28;20052;-76
2022/05/05 01:46:04;;;;;;;2.45;0.75;;;19.00;99.90;;;;;;5070623;28;20025;-74
2022/05/05 01:48:33;;;;;;;1.98;0.98;;;19.00;99.90;;;;;;5070124;28;20040;-74
2022/05/05 01:51:01;;;;;;;1.90;0.93;;;19.00;99.90;;;;;;5070869;28;20027;-72
2022/05/05 01:53:36;;;;;;;1.23;0.90;;;19.00;99.90;;;;;;5070646;28;20099;-76
2022/05/05 01:56:13;;;;;;;1.77;0.90;;;19.00;99.90;;;;;;5069195;28;20047;-75
2022/05/05 01:58:42;;;;;;;1.67;0.73;;;19.10;99.90;;;;;;5071284;28;20477;-72
2022/05/05 02:01:11;;;;;;;1.40;0.55;;;19.10;99.90;;;;;;5071795;28;20029;-74
2022/05/05 02:03:38;;;;;;;0.70;0.40;;;19.10;99.90;;;;;;5057037;28;20358;-73
2022/05/05 02:06:07;;;;;;;2.22;0.80;;;19.10;99.90;;;;;;5074330;28;20074;-74
2022/05/05 02:08:35;;;;;;;1.90;0.75;;;19.20;99.90;;;;;;5074076;28;20063;-72
2022/05/05 02:11:03;;;;;;;2.63;0.65;;;19.20;99.90;;;;;;5073943;28;20108;-72
2022/05/05 02:13:30;;;;;;;3.00;0.65;;;19.20;99.90;;;;;;5073902;28;20389;-75
2022/05/05 02:15:58;;;;;;;1.75;0.80;;;19.20;99.90;;;;;;5074203;28;20386;-72
2022/05/05 02:18:26;;;;;;;1.40;0.60;;;19.20;99.90;;;;;;5074214;28;20101;-73
2022/05/05 02:20:53;;;;;;;1.75;0.90;;;19.20;99.90;;;;;;5072367;28;20070;-76
2022/05/05 02:23:20;;;;;;;1.50;0.70;;;19.20;99.90;;;;;;5074455;28;20031;-74
2022/05/05 02:25:48;;;;;;;1.98;0.75;;;19.20;99.90;;;;;;5071630;28;20035;-72
2022/05/05 02:28:15;;;;;;;0.68;0.40;;;19.20;99.90;;;;;;5073913;28;20067;-74
2022/05/05 02:30:42;;;;;;;2.53;0.80;;;19.40;99.90;;;;;;5074135;28;20118;-75
2022/05/05 02:33:10;;;;;;;3.78;0.90;;;19.40;99.90;;;;;;5074245;28;20020;-76
2022/05/05 02:35:37;;;;;;;4.22;0.60;;;19.50;99.90;;;;;;5073527;28;20044;-71
2022/05/05 02:40:50;;;;;;;2.35;0.73;;;19.50;99.90;;;;;;5073386;28;20024;-73
2022/05/05 02:43:17;;;;;;;2.50;0.65;;;19.40;99.90;;;;;;5075175;28;20032;-74
2022/05/05 02:45:45;;;;;;;1.35;0.52;;;19.30;99.90;;;;;;5074711;28;20074;-77
2022/05/05 02:48:12;;;;;;;1.58;0.70;;;19.20;99.90;;;;;;5072804;28;20774;-70
2022/05/05 02:50:39;;;;;;;1.45;0.50;;;19.20;99.90;;;;;;5074749;28;20020;-70
2022/05/05 02:54:47;;;;;;;1.45;0.50;;;19.20;99.90;;;;;;5074144;28;20036;-71
2022/05/05 02:55:54;;;;;;;1.08;0.70;;;19.30;99.90;;;;;;5074344;28;20375;-70
2022/05/05 02:58:21;;;;;;;1.58;0.98;;;19.30;99.90;;;;;;5073897;28;20021;-70
2022/05/05 03:00:48;;;;;;;1.15;0.70;;;19.40;99.90;;;;;;5073169;28;20495;-71
2022/05/05 03:03:16;;;;;;;1.73;0.90;;;19.40;99.90;;;;;;5074232;28;20154;-72
2022/05/05 03:05:43;;;;;;;1.73;0.80;;;19.50;99.90;;;;;;5074257;28;20024;-71
2022/05/05 03:08:10;;;;;;;2.40;1.08;;;19.60;99.90;;;;;;5073313;28;20036;-78
2022/05/05 03:10:38;;;;;;;3.75;1.00;;;19.70;99.90;;;;;;5071766;28;20369;-74
2022/05/05 03:13:06;;;;;;;1.88;0.77;;;19.80;99.90;;;;;;5073329;28;20362;-75
2022/05/05 03:15:33;;;;;;;2.03;1.08;;;19.80;99.90;;;;;;5071970;28;20023;-77
2022/05/05 03:18:01;;;;;;;0.98;0.68;;;19.70;99.90;;;;;;5073160;28;20027;-78
2022/05/05 03:20:28;;;;;;;3.83;0.70;;;19.70;99.90;;;;;;5070334;28;20012;-75
2022/05/05 03:22:55;;;;;;;1.17;0.80;;;19.60;99.90;;;;;;5073088;28;20024;-78
2022/05/05 03:25:22;;;;;;;2.25;0.73;;;19.50;99.90;;;;;;5072634;28;20033;-75
2022/05/05 03:27:50;;;;;;;2.40;0.90;;;19.50;99.90;;;;;;5072973;28;20058;-75
2022/05/05 03:30:17;;;;;;;1.55;0.65;;;19.50;99.90;;;;;;5072511;28;20029;-74
2022/05/05 03:32:44;;;;;;;1.55;0.73;;;19.50;99.90;;;;;;5071333;28;20144;-77
2022/05/05 03:35:12;;;;;;;1.00;0.43;;;19.50;99.90;;;;;;5072311;28;20052;-72
2022/05/05 03:37:39;;;;;;;1.48;0.63;;;19.60;99.90;;;;;;5072285;28;20021;-73
2022/05/05 03:40:07;;;;;;;4.03;0.63;;;19.60;99.90;;;;;;5073210;28;20025;-71
2022/05/05 03:42:34;;;;;;;1.10;0.68;;;19.70;99.90;;;;;;5074077;28;20052;-77
2022/05/05 03:45:02;;;;;;;0.95;0.52;;;19.70;99.90;;;;;;5074137;28;20023;-71
2022/05/05 03:47:29;;;;;;;3.75;0.68;;;19.70;99.90;;;;;;5070334;28;20035;-71
2022/05/05 03:49:56;;;;;;;8.25;1.27;;;19.60;99.90;;;;;;5071872;28;20457;-75
2022/05/05 03:52:24;;;;;;;2.35;0.70;;;19.60;99.90;;;;;;5072507;28;20485;-75
2022/05/05 03:54:51;;;;;;;1.05;0.50;;;19.60;99.90;;;;;;5070120;28;20021;-77
2022/05/05 03:57:18;;;;;;;1.08;0.75;;;19.60;99.90;;;;;;5072717;28;20469;-71
2022/05/05 03:59:46;;;;;;;1.30;0.80;;;19.50;99.90;;;;;;5072437;28;20548;-71
2022/05/05 04:02:13;;;;;;;1.50;0.65;;;19.50;99.90;;;;;;5065228;28;20099;-78
2022/05/05 04:04:40;;;;;;;3.90;0.70;;;19.50;99.90;;;;;;5071006;28;20665;-77
2022/05/05 04:07:08;;;;;;;1.60;0.57;;;19.50;99.90;;;;;;5072174;28;20025;-76
2022/05/05 04:09:35;;;;;;;1.25;0.70;;;19.50;99.90;;;;;;5071334;28;20389;-77
2022/05/05 04:12:02;;;;;;;1.38;0.80;;;19.40;99.90;;;;;;5071929;28;20017;-77
2022/05/05 04:14:30;;;;;;;2.80;0.75;;;19.40;99.90;;;;;;5069279;28;20021;-73
2022/05/05 04:16:57;;;;;;;0.90;0.60;;;19.40;99.90;;;;;;5072042;28;20492;-77
2022/05/05 04:19:24;;;;;;;1.33;0.65;;;19.50;99.90;;;;;;5070404;28;20394;-76
2022/05/05 04:21:51;;;;;;;0.77;0.60;;;19.40;99.90;;;;;;5071948;28;20031;-76
2022/05/05 04:24:19;;;;;;;1.10;0.50;;;19.40;99.90;;;;;;5071924;28;20048;-76
2022/05/05 04:26:47;;;;;;;1.45;0.80;;;19.40;99.90;;;;;;5071470;28;20158;-76
2022/05/05 04:29:15;;;;;;;2.03;0.90;;;19.40;99.90;;;;;;5069503;28;20029;-74
2022/05/05 04:31:44;;;;;;;1.35;0.60;;;19.40;99.90;;;;;;5071245;28;20496;-75
2022/05/05 04:34:12;;;;;;;3.33;0.80;;;19.40;99.90;;;;;;5069319;28;20120;-75
2022/05/05 04:36:39;;;;;;;3.83;0.65;;;19.40;99.90;;;;;;5057091;28;20020;-72
2022/05/05 04:39:07;;;;;;;1.38;0.60;;;19.40;99.90;;;;;;5056667;28;20516;-71
2022/05/05 04:41:34;;;;;;;0.90;0.50;;;19.40;99.90;;;;;;5062810;28;20087;-72
2022/05/05 04:44:01;;;;;;;2.35;0.60;;;19.40;99.90;;;;;;5051030;28;20336;-72
2022/05/05 04:46:29;;;;;;;1.23;0.60;;;19.40;99.90;;;;;;5062609;28;20062;-76
2022/05/05 04:48:56;;;;;;;1.17;0.60;;;19.30;99.90;;;;;;5055748;28;20028;-75
2022/05/05 04:51:23;;;;;;;1.10;0.70;;;19.30;99.90;;;;;;5068684;28;20048;-72
2022/05/05 04:53:51;;;;;;;1.73;0.60;;;19.30;99.90;;;;;;5052440;28;20020;-72
2022/05/05 04:56:18;;;;;;;2.33;0.60;;;19.30;99.90;;;;;;5064787;28;20389;-75
2022/05/05 04:58:45;;;;;;;1.63;0.50;;;19.30;99.90;;;;;;5055840;28;20106;-74
2022/05/05 05:01:13;;;;;;;2.00;0.75;;;19.30;99.90;;;;;;5059184;28;20032;-75
2022/05/05 05:03:40;;;;;;;1.45;0.60;;;19.30;99.90;;;;;;5064619;28;20025;-74
2022/05/05 05:06:10;;;;;;;2.35;1.02;;;19.30;99.90;;;;;;5053355;28;20106;-72
2022/05/05 05:08:39;;;;;;;2.50;0.70;;;19.30;99.90;;;;;;5065819;28;20032;-71
2022/05/05 05:11:06;;;;;;;3.85;0.90;;;19.40;99.90;;;;;;5057463;28;20029;-74
2022/05/05 05:13:35;;;;;;;1.35;0.60;;;19.40;99.90;;;;;;5065553;28;20013;-77
2022/05/05 05:16:03;;;;;;;2.55;0.90;;;19.50;99.90;;;;;;5069239;28;20082;-72
2022/05/05 05:18:30;;;;;;;2.50;0.77;;;19.50;99.90;;;;;;5056479;28;20485;-76
2022/05/05 05:20:58;;;;;;;0.65;0.55;;;19.50;99.90;;;;;;5062927;28;20037;-76
2022/05/05 05:23:25;;;;;;;2.60;1.00;;;19.50;99.90;;;;;;5064505;28;20036;-75
2022/05/05 05:25:52;;;;;;;0.63;0.43;;;19.50;99.90;;;;;;5055500;28;20075;-73
2022/05/05 05:28:20;;;;;;;2.83;0.93;;;19.40;99.90;;;;;;5055292;28;20060;-76
2022/05/05 05:30:47;;;;;;;3.72;0.90;;;19.50;99.90;;;;;;5071875;28;20033;-76
2022/05/05 05:33:14;;;;;;;1.58;0.63;;;19.50;99.90;;;;;;5060669;28;20402;-72
2022/05/05 05:35:42;;;;;;;1.83;0.88;;;19.50;99.90;;;;;;5066268;28;20052;-76
2022/05/05 05:38:09;;;;;;;1.42;0.70;;;19.40;99.90;;;;;;5056931;28;20031;-76
2022/05/05 05:40:37;;;;;;;3.80;1.13;;;19.40;99.90;;;;;;5069746;28;20029;-75
2022/05/05 05:43:04;;;;;;;2.40;0.60;;;19.30;99.90;;;;;;5065203;28;20079;-73
2022/05/05 05:45:32;;;;;;;3.83;1.05;;;19.30;99.90;;;;;;5062125;28;20061;-74
2022/05/05 05:47:59;;;;;;;1.02;0.52;;;19.20;99.90;;;;;;5071954;28;20038;-75
2022/05/05 05:50:28;;;;;;;4.50;0.70;;;19.20;99.90;;;;;;5060084;28;20108;-73
2022/05/05 05:52:56;;;;;;;3.95;0.85;;;19.10;99.90;;;;;;5066749;28;20076;-72
2022/05/05 05:55:23;;;;;;;2.33;0.80;;;19.10;99.90;;;;;;5067671;28;20043;-75
2022/05/05 05:57:50;;;;;;;2.00;0.60;;;19.10;99.90;;;;;;5059299;28;20112;-73
2022/05/05 06:00:18;;;;;;;2.35;0.70;;;19.00;99.90;;;;;;5072150;28;20031;-73
2022/05/05 06:05:31;;;;;;;1.45;0.73;;;18.90;99.90;;;;;;5062208;28;20067;-76
2022/05/05 06:08:00;;;;;;;1.45;0.70;;;18.90;99.90;;;;;;5071394;28;20036;-71
2022/05/05 06:10:28;;;;;;;1.55;0.60;;;18.80;99.90;;;;;;5059601;28;20081;-72
2022/05/05 06:12:56;;;;;;;2.33;0.65;;;18.70;99.90;;;;;;5066439;28;20025;-71
2022/05/05 06:15:23;;;;;;;2.25;0.88;;;18.70;99.90;;;;;;5067638;28;20029;-72
2022/05/05 06:17:52;;;;;;;4.97;0.85;;;18.70;99.90;;;;;;5058756;28;20363;-73
2022/05/05 06:20:19;;;;;;;2.25;0.90;;;18.60;99.90;;;;;;5058302;28;20031;-76
2022/05/05 06:22:47;;;;;;;7.35;0.98;;;18.60;99.90;;;;;;5074713;28;20028;-75
2022/05/05 06:25:15;;;;;;;1.17;0.70;;;18.50;99.90;;;;;;5063670;28;20025;-74
2022/05/05 06:27:42;;;;;;;2.47;0.70;;;18.50;99.90;;;;;;5069586;28;20135;-72
2022/05/05 06:30:12;;;;;;;2.42;0.95;;;18.50;99.90;;;;;;5057913;28;20029;-74
2022/05/05 06:32:41;;;;;;;1.80;1.00;;;18.50;99.90;;;;;;5068532;28;20124;-72
2022/05/05 06:35:09;;;;;;;2.67;1.02;;;18.50;99.90;;;;;;5064751;28;20049;-75
2022/05/05 06:37:37;;;;;;;1.50;0.85;;;18.50;99.90;;;;;;5060342;28;20033;-72
2022/05/05 06:40:06;;;;;;;4.93;0.90;;;18.50;99.90;;;;;;5070966;28;20031;-76
2022/05/05 06:42:33;;;;;;;1.65;0.80;;;18.50;99.90;;;;;;5059930;28;20021;-75
2022/05/05 06:45:00;;;;;;;3.20;1.10;;;18.40;99.90;;;;;;5065019;28;20037;-75
2022/05/05 06:47:29;;;;;;;6.88;1.00;;;18.40;99.90;;;;;;5067262;28;20032;-72
2022/05/05 06:49:56;;;;;;;2.42;0.75;;;18.40;99.90;;;;;;5056242;28;20041;-76
2022/05/05 06:52:23;;;;;;;3.10;1.00;;;18.40;99.90;;;;;;5070349;28;20046;-74
2022/05/05 06:54:51;;;;;;;1.17;0.80;;;18.40;99.90;;;;;;5060640;28;20431;-71
2022/05/05 06:57:18;;;;;;;3.85;0.90;;;18.30;99.90;;;;;;5062437;28;20397;-73
2022/05/05 06:59:45;;;;;;;4.15;1.33;;;18.20;99.90;;;;;;5069749;28;20174;-75
2022/05/05 07:02:13;;;;;;;2.13;1.23;;;18.20;99.90;;;;;;5056754;28;20040;-74
2022/05/05 07:07:25;;;;;;;1.38;0.90;;;18.10;99.90;;;;;;5066916;28;20027;-74
2022/05/05 07:12:38;;;;;;;3.42;1.52;;;18.10;99.90;;;;;;5060353;28;20452;-76
2022/05/05 07:15:07;;;;;;;2.83;1.02;;;18.00;99.90;;;;;;5073663;28;20060;-75
2022/05/05 07:17:34;;;;;;;2.78;1.00;;;17.90;99.90;;;;;;5059872;28;20108;-76
2022/05/05 07:20:02;;;;;;;4.03;1.20;;;17.90;99.90;;;;;;5070214;28;20025;-74
2022/05/05 07:22:29;;;;;;;4.22;0.95;;;17.80;99.90;;;;;;5058549;28;20059;-73
2022/05/05 07:24:56;;;;;;;1.33;1.17;;;17.80;99.90;;;;;;5065056;28;20520;-76
2022/05/05 07:27:24;;;;;;;7.20;1.38;;;17.70;99.90;;;;;;5065854;28;20068;-74
2022/05/05 07:29:51;;;;;;;4.70;1.80;;;17.70;99.90;;;;;;5057284;28;20035;-75
2022/05/05 07:32:18;;;;;;;10.10;1.30;;;17.70;99.90;;;;;;5069881;28;20794;-76
2022/05/05 07:34:46;;;;;;;4.93;1.15;;;17.70;99.90;;;;;;5059614;28;20052;-72
2022/05/05 07:37:13;;;;;;;2.50;1.15;;;17.60;99.90;;;;;;5062552;28;20454;-72
2022/05/05 07:39:41;;;;;;;2.30;1.40;;;17.60;99.90;;;;;;5068222;28;20037;-75
2022/05/05 07:42:08;;;;;;;3.97;1.27;;;17.50;99.90;;;;;;5056727;28;20025;-75
2022/05/05 07:44:36;;;;;;;1.75;0.95;;;17.40;99.90;;;;;;5067490;28;20036;-76
2022/05/05 07:47:03;;;;;;;2.72;1.45;;;17.30;99.90;;;;;;5062767;28;20056;-76
2022/05/05 07:49:31;;;;;;;4.53;1.60;;;17.30;99.90;;;;;;5059376;28;20045;-73
2022/05/05 07:51:58;;;;;;;4.97;1.20;;;17.30;99.90;;;;;;5070151;28;20046;-70
2022/05/05 07:54:34;;;;;;;4.45;1.20;;;17.30;99.90;;;;;;5061686;28;20059;-74
2022/05/05 07:57:06;;;;;;;4.03;0.98;;;17.20;99.90;;;;;;5052892;28;20033;-74
2022/05/05 07:59:34;;;;;;;2.97;1.55;;;17.20;99.90;;;;;;5052881;28;20028;-75
2022/05/05 08:02:03;;;;;;;4.47;1.02;;;17.20;99.90;;;;;;5069585;28;20024;-75
2022/05/05 08:04:31;;;;;;;2.90;0.90;;;17.10;99.90;;;;;;5067181;28;20127;-76
2022/05/05 08:06:59;;;;;;;3.15;1.27;;;17.10;99.90;;;;;;5061575;28;20564;-76
2022/05/05 08:09:26;;;;;;;4.00;1.20;;;17.10;99.90;;;;;;5059242;28;20144;-72
2022/05/05 08:11:54;;;;;;;2.70;1.00;;;17.10;99.90;;;;;;5068087;28;20035;-74
2022/05/05 08:14:21;;;;;;;4.13;1.15;;;17.10;99.90;;;;;;5056344;28;20036;-74
2022/05/05 08:16:49;;;;;;;2.03;0.93;;;17.10;99.90;;;;;;5072215;28;20029;-72
2022/05/05 08:19:17;;;;;;;3.42;1.35;;;17.10;99.90;;;;;;5060145;28;20029;-74
2022/05/05 08:21:44;;;;;;;1.65;0.82;;;17.00;99.90;;;;;;5061167;28;20041;-72
2022/05/05 08:29:42;;;;;;;4.50;1.20;;;16.90;99.90;;;;;;5052161;28;20071;-72
2022/05/05 08:32:10;;;;;;;3.03;1.30;;;16.90;99.90;;;;;;5052539;28;20028;-76
2022/05/05 08:34:37;;;;;;;7.53;1.63;;;16.80;99.90;;;;;;5052182;28;20072;-76
2022/05/05 08:37:05;;;;;;;4.15;1.10;;;16.80;99.90;;;;;;5052118;28;20143;-76
2022/05/05 08:39:32;;;;;;;4.75;1.30;;;16.80;99.90;;;;;;5066498;28;20021;-75
2022/05/05 08:42:06;;;;;;;3.20;1.25;;;16.80;99.90;;;;;;5065286;28;20076;-74
2022/05/05 08:44:34;;;;;;;2.35;1.33;;;16.80;99.90;;;;;;5071654;28;20062;-77
2022/05/05 08:47:02;;;;;;;2.47;1.02;;;16.80;99.90;;;;;;5072073;28;20024;-77
2022/05/05 08:49:31;;;;;;;3.75;1.00;;;16.80;99.90;;;;;;5071962;28;20040;-71
2022/05/05 08:52:03;;;;;;;3.85;1.92;;;16.80;99.90;;;;;;5054841;28;20096;-76
2022/05/05 08:54:35;;;;;;;6.85;1.73;;;16.80;99.90;;;;;;5066365;28;20027;-76
2022/05/05 08:57:02;;;;;;;4.85;1.48;;;16.80;99.90;;;;;;5061094;28;20017;-76
2022/05/05 08:59:31;;;;;;;6.32;1.80;;;16.70;99.90;;;;;;5057479;28;20553;-78
2022/05/05 09:01:58;;;;;;;3.75;2.13;;;16.70;99.90;;;;;;5064414;28;20032;-77
2022/05/05 09:04:25;;;;;;;3.85;2.78;;;16.70;99.90;;;;;;5071366;28;20096;-76
2022/05/05 09:06:54;;;;;;;4.65;2.13;;;16.70;99.90;;;;;;5070776;28;20031;-77
2022/05/05 09:09:28;;;;;;;6.18;2.30;;;16.70;99.90;;;;;;5069737;28;20403;-77
2022/05/05 09:12:12;;;;;;;3.63;1.77;;;16.70;99.90;;;;;;5069027;28;20548;-76
2022/05/05 09:14:44;;;;;;;4.57;2.00;;;16.70;99.90;;;;;;5063917;28;20106;-75
2022/05/05 09:17:22;;;;;;;7.22;2.50;;;16.70;99.90;;;;;;5060016;28;20488;-76
2022/05/05 09:19:51;;;;;;;6.90;2.22;;;16.70;99.90;;;;;;5054071;28;20021;-76
2022/05/05 09:22:21;;;;;;;13.02;2.50;;;16.70;99.90;;;;;;5067852;28;20104;-71
2022/05/05 09:24:51;;;;;;;8.40;2.25;;;16.70;99.90;;;;;;5058330;28;20021;-71
2022/05/05 09:27:25;;;;;;;7.18;2.40;;;16.70;99.90;;;;;;5059023;28;20027;-76
2022/05/05 09:30:02;;;;;;;8.38;2.08;;;16.70;99.90;;;;;;5067398;28;20427;-72
2022/05/05 09:32:37;;;;;;;6.43;2.63;;;16.60;99.90;;;;;;5055098;28;20020;-76
2022/05/05 09:35:16;;;;;;;5.30;1.90;;;16.60;99.90;;;;;;5070106;28;20064;-75
2022/05/05 09:37:48;;;;;;;6.68;1.73;;;16.60;99.90;;;;;;5055164;28;20115;-76
2022/05/05 09:40:18;;;;;;;4.93;2.17;;;16.60;99.90;;;;;;5066796;28;20496;-72
2022/05/05 09:42:50;;;;;;;6.38;2.00;;;16.60;99.90;;;;;;5058842;28;20020;-76
2022/05/05 09:45:34;;;;;;;6.03;2.15;;;16.60;99.90;;;;;;5059926;28;20037;-70
2022/05/05 09:48:03;;;;;;;4.53;1.60;;;16.50;99.90;;;;;;5069277;28;20064;-73
2022/05/05 09:50:32;;;;;;;3.00;1.20;;;16.50;99.90;;;;;;5069167;28;20059;-71
2022/05/05 09:58:39;;;;;;;4.00;1.20;;;16.30;99.90;;;;;;5072416;28;20023;-76
2022/05/05 10:01:09;;;;;;;6.50;1.63;;;16.30;99.90;;;;;;5071077;28;20062;-76
2022/05/05 10:04:00;;;;;;;2.17;1.40;;;16.30;99.90;;;;;;5071714;28;20395;-77
2022/05/05 10:06:43;;;;;;;3.10;1.33;;;16.30;99.90;;;;;;5072167;28;20090;-75
2022/05/05 10:09:12;;;;;;;5.47;1.30;;;16.20;99.90;;;;;;5071206;28;20453;-71
2022/05/05 10:11:40;;;;;;;1.35;0.90;;;16.20;99.90;;;;;;5072087;28;20016;-71
2022/05/05 10:14:11;;;;;;;2.35;1.33;;;16.20;99.90;;;;;;5071824;28;20029;-71
2022/05/05 10:16:39;;;;;;;1.85;1.25;;;16.20;99.90;;;;;;5071588;28;20021;-71
2022/05/05 10:19:07;;;;;;;2.20;1.17;;;16.20;99.90;;;;;;5071774;28;20023;-71
2022/05/05 10:21:56;;;;;;;3.60;1.50;;;16.20;99.90;;;;;;5081198;28;20024;-71
2022/05/05 10:24:31;;;;;;;5.53;2.03;;;16.10;99.90;;;;;;5073597;28;20059;-77
2022/05/05 10:27:01;;;;;;;2.95;1.73;;;16.10;99.90;;;;;;5073843;28;20039;-77
2022/05/05 10:29:46;;;;;;;5.95;1.92;;;16.00;99.90;;;;;;5073800;28;20033;-76
2022/05/05 10:32:21;;;;;;;3.88;1.85;;;16.00;99.90;;;;;;5074201;28;20107;-77
2022/05/05 10:34:54;;;;;;;4.05;1.70;;;15.90;99.90;;;;;;5060227;28;20099;-72
2022/05/05 10:37:32;;;;;;;3.40;1.70;;;15.90;99.90;;;;;;5069909;28;20025;-72
2022/05/05 10:40:02;;;;;;;5.97;1.77;;;15.80;99.90;;;;;;5058688;28;20377;-76
2022/05/05 10:42:39;;;;;;;2.85;1.55;;;15.80;99.90;;;;;;5074233;28;20013;-74
2022/05/05 10:45:10;;;;;;;2.75;1.35;;;15.70;99.90;;;;;;5060531;28;20094;-76
2022/05/05 10:47:55;;;;;;;3.75;1.63;;;15.70;99.90;;;;;;5070807;28;20082;-73
2022/05/05 10:50:39;;;;;;;3.25;1.40;;;15.70;99.90;;;;;;5061767;28;20047;-74
2022/05/05 10:53:08;;;;;;;3.55;1.42;;;15.70;99.90;;;;;;5060469;28;20028;-70
2022/05/05 10:55:46;;;;;;;4.68;1.67;;;15.70;99.90;;;;;;5070398;28;20493;-71
2022/05/05 10:58:33;;;;;;;4.50;1.80;;;15.70;99.90;;;;;;5060669;28;20016;-71
2022/05/05 11:01:01;;;;;;;3.80;1.42;;;15.70;99.90;;;;;;5060538;28;20029;-74
2022/05/05 11:03:28;;;;;;;2.78;1.23;;;15.70;99.90;;;;;;5070405;28;20029;-78
2022/05/05 11:06:16;;;;;;;5.10;1.70;;;15.70;99.90;;;;;;5057885;28;20024;-73
2022/05/05 11:08:55;;;;;;;3.28;1.70;;;15.70;99.90;;;;;;5069043;28;20046;-77
2022/05/05 11:23:12;;;;;;;3.35;1.50;;;15.70;99.90;;;;;;5073156;28;19915;-75
2022/05/05 11:25:43;;;;;;;3.65;1.42;;;15.70;99.90;;;;;;5072816;28;20028;-74
2022/05/05 11:28:13;;;;;;;2.60;1.35;;;15.70;99.90;;;;;;5055774;28;20903;-75
2022/05/05 11:30:44;;;;;;;2.03;1.23;;;15.60;99.90;;;;;;5063261;28;20101;-71
2022/05/05 11:33:11;;;;;;;3.17;1.55;;;15.60;99.90;;;;;;5073545;28;20083;-75
2022/05/05 11:35:39;;;;;;;1.98;1.13;;;15.70;99.90;;;;;;5062078;28;20048;-75
2022/05/05 11:38:12;;;;;;;3.70;1.30;;;15.60;99.90;;;;;;5071783;28;20027;-76
2022/05/05 11:40:41;;;;;;;3.70;1.60;;;15.60;99.90;;;;;;5062885;28;20043;-77
2022/05/05 11:45:57;;;;;;;2.55;1.38;;;15.70;99.90;;;;;;5057169;28;20074;-71
2022/05/05 11:48:24;;;;;;;4.00;1.33;;;15.70;99.90;;;;;;5073190;28;20039;-74
2022/05/05 11:50:51;;;;;;;2.67;1.52;;;15.70;99.90;;;;;;5061372;28;20052;-74
2022/05/05 11:53:20;;;;;;;2.17;1.42;;;15.60;99.90;;;;;;5068533;28;20089;-76
2022/05/05 11:55:52;;;;;;;3.38;1.52;;;15.60;99.90;;;;;;5056335;28;20191;-72
2022/05/05 12:04:01;;;;;;;1.95;1.15;;;15.60;99.90;;;;;;5057795;28;20384;-76
2022/05/05 12:06:29;;;;;;;3.20;1.88;;;15.60;99.90;;;;;;5072800;28;20016;-71
2022/05/05 12:08:57;;;;;;;2.97;1.23;;;15.60;99.90;;;;;;5071682;28;20055;-75
2022/05/05 12:11:30;;;;;;;2.78;1.35;;;15.50;99.90;;;;;;5072729;28;20017;-73
2022/05/05 12:14:06;;;;;;;3.47;1.25;;;15.50;99.90;;;;;;5057043;28;20028;-72
2022/05/05 12:16:38;;;;;;;4.07;1.25;;;15.50;99.90;;;;;;5072553;28;20096;-72
2022/05/05 12:19:13;;;;;;;5.40;1.40;;;15.50;99.90;;;;;;5058977;28;20025;-76
2022/05/05 12:22:02;;;;;;;2.22;1.50;;;15.50;99.90;;;;;;5069031;28;20037;-74
2022/05/05 12:24:31;;;;;;;8.18;1.80;;;15.50;99.90;;;;;;5070495;28;20090;-72
2022/05/05 12:27:08;;;;;;;3.72;1.70;;;15.50;99.90;;;;;;5071832;28;20082;-76
2022/05/05 12:29:43;;;;;;;2.35;1.45;;;15.50;99.90;;;;;;5071751;28;20040;-73
2022/05/05 12:32:13;;;;;;;2.90;1.42;;;15.50;99.90;;;;;;5071944;28;20017;-72
2022/05/05 12:34:41;;;;;;;8.57;2.30;;;15.50;99.90;;;;;;5071469;28;20110;-72
2022/05/05 12:37:20;;;;;;;3.35;1.05;;;15.50;99.90;;;;;;5069831;28;20028;-75
2022/05/05 12:40:02;;;;;;;2.10;1.52;;;15.60;99.90;;;;;;5069216;28;20033;-72
2022/05/05 12:42:45;;;;;;;3.58;1.65;;;15.60;99.90;;;;;;5070908;28;20008;-72
2022/05/05 12:45:24;;;;;;;5.40;1.60;;;15.60;99.90;;;;;;5071293;28;20554;-76
2022/05/05 12:47:52;;;;;;;2.67;1.48;;;15.60;99.90;;;;;;5071180;28;20042;-74
2022/05/05 12:50:36;;;;;;;2.22;1.88;;;15.60;99.90;;;;;;5071399;28;20555;-76
2022/05/05 13:01:29;;;;;;;2.73;1.40;;;15.60;99.90;;;;;;5069806;28;20108;-72
2022/05/05 13:04:06;;;;;;;7.88;2.10;;;15.60;99.90;;;;;;5071190;28;20315;-76
2022/05/05 13:06:35;;;;;;;3.58;1.98;;;15.60;99.90;;;;;;5071705;28;20419;-71
2022/05/05 13:09:05;;;;;;;3.45;1.92;;;15.60;99.90;;;;;;5069132;28;20534;-73
2022/05/05 13:11:33;;;;;;;2.17;1.40;;;15.60;99.90;;;;;;5071501;28;20016;-73
2022/05/05 13:14:02;;;;;;;11.27;2.60;;;15.60;99.90;;;;;;5068773;28;20024;-71
2022/05/05 13:16:31;;;;;;;2.45;1.77;;;15.60;99.90;;;;;;5071337;28;20483;-72
2022/05/05 13:19:01;;;;;;;3.38;1.90;;;15.60;99.90;;;;;;5071433;28;20103;-72
2022/05/05 13:21:29;;;;;;;4.53;2.05;;;15.60;99.90;;;;;;5071481;28;20428;-75
2022/05/05 13:23:57;;;;;;;5.53;2.10;;;15.60;99.90;;;;;;5071347;28;20410;-71
2022/05/05 13:26:25;;;;;;;3.72;1.60;;;15.60;99.90;;;;;;5071463;28;20051;-72
2022/05/05 13:28:53;;;;;;;2.78;1.58;;;15.60;99.90;;;;;;5071756;28;20107;-70
2022/05/05 13:31:20;;;;;;;4.47;1.73;;;15.60;99.90;;;;;;5073593;28;20108;-70
2022/05/05 13:33:48;;;;;;;2.05;1.30;;;15.50;99.90;;;;;;5072897;28;20033;-70
2022/05/05 13:36:15;;;;;;;4.28;1.42;;;15.50;99.90;;;;;;5073260;28;20033;-70
2022/05/05 13:38:42;;;;;;;6.40;1.77;;;15.40;99.90;;;;;;5073167;28;20028;-70
2022/05/05 13:41:10;;;;;;;4.70;1.42;;;15.40;99.90;;;;;;5073227;28;20013;-70
2022/05/05 13:43:39;;;;;;;3.85;1.10;;;15.30;99.90;;;;;;5072925;28;20035;-70
2022/05/05 13:46:06;;;;;;;1.85;1.10;;;15.20;99.90;;;;;;5072934;28;20028;-70
2022/05/05 13:48:37;;;;;;;3.58;1.02;;;15.20;99.90;;;;;;5071630;28;20032;-70
2022/05/05 13:51:05;;;;;;;1.73;1.20;;;15.20;99.90;;;;;;5072424;28;20516;-71
2022/05/05 13:53:33;;;;;;;3.40;1.27;;;15.20;99.90;;;;;;5072478;28;20016;-70
2022/05/05 13:56:01;;;;;;;2.72;1.05;;;15.20;99.90;;;;;;5072572;28;20032;-71